CST,Max TemperatureF,Mean TemperatureF,Min TemperatureF,Max Dew PointF,MeanDew PointF,Min DewpointF,Max Humidity, Mean Humidity, Min Humidity, Max Sea Level PressureIn, Mean Sea Level PressureIn, Min Sea Level PressureIn, Max VisibilityMiles, Mean VisibilityMiles, Min VisibilityMiles, Max Wind SpeedMPH, Mean Wind SpeedMPH, Max Gust SpeedMPH,PrecipitationIn, CloudCover, Events, WindDirDegrees
2012-12-1,78,68,59,64,61,57,100,78,54,30.10,30.04,29.97,10,10,10,26,13,33,0.00,5,,174
2012-12-2,80,72,64,64,61,57,88,73,51,30.14,30.07,30.03,10,10,10,23,14,30,0.00,4,,189
2012-12-3,78,70,62,63,60,57,94,77,47,30.05,30.01,29.94,10,10,10,24,13,33,0.00,4,,176
2012-12-4,71,60,46,63,49,30,100,65,35,30.28,30.13,30.01,10,10,10,21,10,25,0.00,2,,336
2012-12-5,62,52,42,48,40,30,93,63,50,30.30,30.20,30.08,10,10,10,12,7,16,0.00,3,,72
2012-12-6,64,54,44,54,49,43,100,84,59,30.07,29.96,29.86,10,9,2,16,10,20,0.00,4,,133
2012-12-7,71,60,48,59,53,46,100,78,53,29.90,29.86,29.80,10,7,1,17,10,21,0.00,6,,175
2012-12-8,68,59,50,57,51,46,94,77,52,29.94,29.87,29.81,10,10,8,12,6,,0.00,6,,80
2012-12-9,75,60,44,64,53,25,100,74,46,29.99,29.84,29.78,10,10,6,25,13,31,0.00,3,,259
2012-12-10,42,34,26,21,17,12,74,50,34,30.15,30.09,29.98,10,10,10,26,17,32,0.00,2,,330
2012-12-11,48,32,17,21,16,10,80,52,25,30.27,30.19,30.12,10,10,10,13,6,,0.00,0,,83
2012-12-12,53,38,23,25,15,10,74,43,19,30.37,30.29,30.25,10,10,10,13,6,20,0.00,0,,136
2012-12-13,62,45,28,25,20,14,69,44,20,30.37,30.29,30.22,10,10,10,14,9,17,0.00,0,,136
2012-12-14,55,46,37,52,33,21,88,59,38,30.23,30.09,29.88,10,10,10,20,10,23,0.01,7,,132
2012-12-15,69,60,48,57,44,36,100,63,28,29.92,29.86,29.81,10,9,2,20,10,22,0.14,2,,209
2012-12-16,71,58,46,45,40,34,76,56,27,29.85,29.77,29.69,10,10,7,13,6,16,0.00,0,,227
2012-12-17,59,49,39,46,37,32,93,68,39,29.89,29.83,29.74,10,10,9,17,8,21,0.00,0,,274
2012-12-18,73,54,35,39,34,32,93,57,23,29.87,29.82,29.78,10,10,10,21,8,24,0.00,0,,170
2012-12-19,75,62,48,63,57,36,88,73,51,29.81,29.70,29.55,10,10,5,28,13,52,0.30,5,Thunderstorm,180
2012-12-20,57,46,35,30,18,7,65,39,19,30.40,30.17,29.73,10,10,10,33,23,43,0.00,0,,305
2012-12-21,62,43,24,21,17,10,69,39,16,30.47,30.37,30.30,10,10,10,10,6,17,0.00,0,,227
2012-12-22,62,46,30,43,28,18,71,48,22,30.32,30.21,30.05,10,10,10,21,8,28,0.00,0,,182
2012-12-23,66,55,44,55,46,30,88,67,50,30.05,29.92,29.83,10,10,10,16,9,22,0.00,4,,213
2012-12-24,55,42,30,30,28,27,86,59,35,30.04,29.93,29.84,10,10,7,15,9,16,0.00,0,,346
2012-12-25,48,38,28,43,35,25,100,86,62,30.05,29.81,29.67,10,7,1,29,17,46,2.16,7,Thunderstorm,15
2012-12-26,30,26,21,25,21,16,100,82,69,30.25,30.16,30.06,10,10,10,28,15,34,0.07,1,,315
2012-12-27,33,26,19,34,27,18,100,94,86,30.15,30.05,29.94,10,6,0,13,7,,0.08,6,,109
2012-12-28,39,34,28,37,32,21,100,89,69,30.18,29.99,29.91,10,8,2,23,11,28,0.10,7,,345
2012-12-29,42,33,24,21,18,14,80,60,39,30.46,30.36,30.19,10,10,10,16,10,21,0.00,0,,306
2012-12-30,44,32,21,30,24,18,93,65,43,30.50,30.40,30.27,10,10,10,13,6,16,0.00,1,,134
2012-12-31,41,39,37,39,35,28,100,85,65,30.28,30.10,30.00,10,8,3,15,8,20,0.25,8,,87